sensor_id;sensor_type;location;lat;lon;timestamp;P1;durP1;ratioP1;P2;durP2;ratioP2
2001;SDS011;1003;48.002;7.788;2022-07-29T00:00:15;5.67;;;5.10;;
2001;SDS011;1003;48.002;7.788;2022-07-29T00:02:42;6.63;;;5.30;;
2001;SDS011;1003;48.002;7.788;2022-07-29T00:05:09;5.83;;;4.97;;
2001;SDS011;1003;48.002;7.788;2022-07-29T00:07:38;5.43;;;4.83;;
2001;SDS011;1003;48.002;7.788;2022-07-29T00:10:06;6.33;;;4.90;;
2001;SDS011;1003;48.002;7.788;2022-07-29T00:12:34;6.40;;;5.37;;
2001;SDS011;1003;48.002;7.788;2022-07-29T00:15:02;6.43;;;5.10;;
2001;SDS011;1003;48.002;7.788;2022-07-29T00:17:30;5.60;;;5.10;;
2001;SDS011;1003;48.002;7.788;2022-07-29T00:19:59;5.57;;;5.03;;
2001;SDS011;1003;48.002;7.788;2022-07-29T00:22:26;5.57;;;5.00;;
2001;SDS011;1003;48.002;7.788;2022-07-29T00:24:53;6.87;;;4.80;;
2001;SDS011;1003;48.002;7.788;2022-07-29T00:27:20;6.30;;;4.90;;
2001;SDS011;1003;48.002;7.788;2022-07-29T00:29:47;7.13;;;5.20;;
2001;SDS011;1003;48.002;7.788;2022-07-29T00:32:16;5.90;;;5.30;;
2001;SDS011;1003;48.002;7.788;2022-07-29T00:34:43;5.73;;;4.87;;
2001;SDS011;1003;48.002;7.788;2022-07-29T00:37:28;5.87;;;4.70;;
2001;SDS011;1003;48.002;7.788;2022-07-29T00:39:55;5.53;;;4.93;;
2001;SDS011;1003;48.002;7.788;2022-07-29T00:42:22;5.70;;;5.10;;
2001;SDS011;1003;48.002;7.788;2022-07-29T00:44:49;5.53;;;5.03;;
2001;SDS011;1003;48.002;7.788;2022-07-29T00:47:17;5.77;;;5.03;;
2001;SDS011;1003;48.002;7.788;2022-07-29T00:49:45;5.70;;;5.17;;
2001;SDS011;1003;48.002;7.788;2022-07-29T00:52:12;5.80;;;5.07;;
2001;SDS011;1003;48.002;7.788;2022-07-29T00:54:40;5.53;;;5.03;;
2001;SDS011;1003;48.002;7.788;2022-07-29T00:57:07;5.60;;;5.07;;
2001;SDS011;1003;48.002;7.788;2022-07-29T00:59:34;6.53;;;5.03;;
2001;SDS011;1003;48.002;7.788;2022-07-29T01:02:01;5.87;;;5.27;;
2001;SDS011;1003;48.002;7.788;2022-07-29T01:04:30;5.77;;;5.17;;
2001;SDS011;1003;48.002;7.788;2022-07-29T01:06:58;5.63;;;5.13;;
2001;SDS011;1003;48.002;7.788;2022-07-29T01:09:28;6.43;;;5.20;;
2001;SDS011;1003;48.002;7.788;2022-07-29T01:11:58;6.70;;;5.50;;
2001;SDS011;1003;48.002;7.788;2022-07-29T01:14:26;6.17;;;4.87;;
2001;SDS011;1003;48.002;7.788;2022-07-29T01:16:58;5.70;;;5.10;;
2001;SDS011;1003;48.002;7.788;2022-07-29T01:19:38;8.23;;;5.10;;
2001;SDS011;1003;48.002;7.788;2022-07-29T01:22:26;6.47;;;4.70;;
2001;SDS011;1003;48.002;7.788;2022-07-29T01:25:11;5.50;;;4.83;;
2001;SDS011;1003;48.002;7.788;2022-07-29T01:31:11;5.27;;;4.77;;
2001;SDS011;1003;48.002;7.788;2022-07-29T01:33:45;6.23;;;5.10;;
2001;SDS011;1003;48.002;7.788;2022-07-29T01:36:29;6.33;;;5.17;;
2001;SDS011;1003;48.002;7.788;2022-07-29T01:39:06;5.83;;;5.23;;
2001;SDS011;1003;48.002;7.788;2022-07-29T01:41:38;7.50;;;4.80;;
2001;SDS011;1003;48.002;7.788;2022-07-29T01:44:17;5.30;;;4.80;;
2001;SDS011;1003;48.002;7.788;2022-07-29T01:46:54;5.50;;;4.70;;
2001;SDS011;1003;48.002;7.788;2022-07-29T01:49:28;6.93;;;5.20;;
2001;SDS011;1003;48.002;7.788;2022-07-29T01:52:03;5.80;;;4.80;;
2001;SDS011;1003;48.002;7.788;2022-07-29T01:54:35;6.00;;;5.40;;
2001;SDS011;1003;48.002;7.788;2022-07-29T01:57:08;5.40;;;4.90;;
2001;SDS011;1003;48.002;7.788;2022-07-29T01:59:40;5.87;;;5.10;;
2001;SDS011;1003;48.002;7.788;2022-07-29T02:02:11;5.83;;;4.80;;
2001;SDS011;1003;48.002;7.788;2022-07-29T02:04:42;5.60;;;5.10;;
2001;SDS011;1003;48.002;7.788;2022-07-29T02:07:13;5.70;;;4.87;;
2001;SDS011;1003;48.002;7.788;2022-07-29T02:09:45;5.20;;;4.43;;
2001;SDS011;1003;48.002;7.788;2022-07-29T02:12:16;5.20;;;4.70;;
2001;SDS011;1003;48.002;7.788;2022-07-29T02:14:47;7.10;;;4.70;;
2001;SDS011;1003;48.002;7.788;2022-07-29T02:17:20;6.73;;;4.60;;
2001;SDS011;1003;48.002;7.788;2022-07-29T02:19:54;6.20;;;4.77;;
2001;SDS011;1003;48.002;7.788;2022-07-29T02:22:26;5.67;;;4.67;;
2001;SDS011;1003;48.002;7.788;2022-07-29T02:24:57;6.07;;;4.43;;
2001;SDS011;1003;48.002;7.788;2022-07-29T02:27:27;5.30;;;4.50;;
2001;SDS011;1003;48.002;7.788;2022-07-29T02:29:57;5.17;;;4.67;;
2001;SDS011;1003;48.002;7.788;2022-07-29T02:32:27;7.40;;;4.87;;
2001;SDS011;1003;48.002;7.788;2022-07-29T02:34:57;5.30;;;4.30;;
2001;SDS011;1003;48.002;7.788;2022-07-29T02:37:27;5.10;;;4.47;;
2001;SDS011;1003;48.002;7.788;2022-07-29T02:39:56;4.97;;;4.47;;
2001;SDS011;1003;48.002;7.788;2022-07-29T02:42:26;7.73;;;4.60;;
2001;SDS011;1003;48.002;7.788;2022-07-29T02:44:54;5.87;;;4.70;;
2001;SDS011;1003;48.002;7.788;2022-07-29T02:47:24;5.90;;;4.37;;
2001;SDS011;1003;48.002;7.788;2022-07-29T02:50:03;5.37;;;4.83;;
2001;SDS011;1003;48.002;7.788;2022-07-29T02:52:38;5.80;;;4.70;;
2001;SDS011;1003;48.002;7.788;2022-07-29T02:55:13;5.47;;;4.93;;
2001;SDS011;1003;48.002;7.788;2022-07-29T02:57:51;5.27;;;4.77;;
2001;SDS011;1003;48.002;7.788;2022-07-29T03:00:28;5.67;;;4.50;;
2001;SDS011;1003;48.002;7.788;2022-07-29T03:03:01;6.47;;;5.00;;
2001;SDS011;1003;48.002;7.788;2022-07-29T03:05:34;6.27;;;4.80;;
2001;SDS011;1003;48.002;7.788;2022-07-29T03:08:03;6.10;;;5.00;;
2001;SDS011;1003;48.002;7.788;2022-07-29T03:10:33;5.37;;;4.87;;
2001;SDS011;1003;48.002;7.788;2022-07-29T03:13:03;6.30;;;5.37;;
2001;SDS011;1003;48.002;7.788;2022-07-29T03:15:33;6.13;;;4.93;;
2001;SDS011;1003;48.002;7.788;2022-07-29T03:18:01;5.33;;;4.83;;
2001;SDS011;1003;48.002;7.788;2022-07-29T03:20:29;5.37;;;4.87;;
2001;SDS011;1003;48.002;7.788;2022-07-29T03:22:57;6.63;;;5.10;;
2001;SDS011;1003;48.002;7.788;2022-07-29T03:25:24;7.57;;;5.10;;
2001;SDS011;1003;48.002;7.788;2022-07-29T03:27:52;7.00;;;5.10;;
2001;SDS011;1003;48.002;7.788;2022-07-29T03:30:19;5.37;;;4.87;;
2001;SDS011;1003;48.002;7.788;2022-07-29T03:32:47;5.50;;;5.00;;
2001;SDS011;1003;48.002;7.788;2022-07-29T03:35:15;5.50;;;4.73;;
2001;SDS011;1003;48.002;7.788;2022-07-29T03:37:42;5.90;;;4.87;;
2001;SDS011;1003;48.002;7.788;2022-07-29T03:40:11;5.97;;;5.17;;
2001;SDS011;1003;48.002;7.788;2022-07-29T03:42:44;5.37;;;4.87;;
2001;SDS011;1003;48.002;7.788;2022-07-29T03:45:15;5.23;;;4.73;;
2001;SDS011;1003;48.002;7.788;2022-07-29T03:47:47;6.50;;;5.10;;
2001;SDS011;1003;48.002;7.788;2022-07-29T03:50:24;6.80;;;5.40;;
2001;SDS011;1003;48.002;7.788;2022-07-29T03:52:51;5.63;;;5.03;;
2001;SDS011;1003;48.002;7.788;2022-07-29T03:55:18;7.07;;;5.37;;
2001;SDS011;1003;48.002;7.788;2022-07-29T03:57:46;5.87;;;5.00;;
2001;SDS011;1003;48.002;7.788;2022-07-29T04:00:15;5.87;;;4.87;;
2001;SDS011;1003;48.002;7.788;2022-07-29T04:02:44;5.50;;;4.90;;
2001;SDS011;1003;48.002;7.788;2022-07-29T04:05:14;6.20;;;4.83;;
2001;SDS011;1003;48.002;7.788;2022-07-29T04:07:43;5.60;;;5.00;;
2001;SDS011;1003;48.002;7.788;2022-07-29T04:10:11;6.10;;;5.10;;
2001;SDS011;1003;48.002;7.788;2022-07-29T04:12:38;6.10;;;4.90;;
2001;SDS011;1003;48.002;7.788;2022-07-29T04:15:05;6.00;;;5.30;;
2001;SDS011;1003;48.002;7.788;2022-07-29T04:17:33;6.40;;;4.83;;
2001;SDS011;1003;48.002;7.788;2022-07-29T04:20:01;5.67;;;4.73;;
2001;SDS011;1003;48.002;7.788;2022-07-29T04:22:30;5.17;;;4.53;;
2001;SDS011;1003;48.002;7.788;2022-07-29T04:24:57;4.83;;;4.43;;
2001;SDS011;1003;48.002;7.788;2022-07-29T04:27:24;6.47;;;4.60;;
2001;SDS011;1003;48.002;7.788;2022-07-29T04:29:51;5.57;;;4.50;;
2001;SDS011;1003;48.002;7.788;2022-07-29T04:32:18;4.60;;;4.20;;
2001;SDS011;1003;48.002;7.788;2022-07-29T04:34:45;5.50;;;4.33;;
2001;SDS011;1003;48.002;7.788;2022-07-29T04:37:13;6.47;;;5.20;;
2001;SDS011;1003;48.002;7.788;2022-07-29T04:39:41;5.47;;;4.67;;
2001;SDS011;1003;48.002;7.788;2022-07-29T04:42:08;6.87;;;4.30;;
2001;SDS011;1003;48.002;7.788;2022-07-29T04:44:36;5.03;;;4.50;;
2001;SDS011;1003;48.002;7.788;2022-07-29T04:47:03;6.10;;;4.60;;
2001;SDS011;1003;48.002;7.788;2022-07-29T04:49:34;8.07;;;5.43;;
2001;SDS011;1003;48.002;7.788;2022-07-29T04:52:04;5.20;;;4.70;;
2001;SDS011;1003;48.002;7.788;2022-07-29T04:54:31;5.10;;;4.50;;
2001;SDS011;1003;48.002;7.788;2022-07-29T04:57:00;5.13;;;4.63;;
2001;SDS011;1003;48.002;7.788;2022-07-29T04:59:27;5.53;;;4.80;;
2001;SDS011;1003;48.002;7.788;2022-07-29T05:01:54;4.47;;;4.07;;
2001;SDS011;1003;48.002;7.788;2022-07-29T05:04:21;5.37;;;4.40;;
2001;SDS011;1003;48.002;7.788;2022-07-29T05:06:49;5.73;;;5.10;;
2001;SDS011;1003;48.002;7.788;2022-07-29T05:09:16;6.07;;;4.33;;
2001;SDS011;1003;48.002;7.788;2022-07-29T05:11:43;4.63;;;4.23;;
2001;SDS011;1003;48.002;7.788;2022-07-29T05:14:11;5.27;;;4.63;;
2001;SDS011;1003;48.002;7.788;2022-07-29T05:16:38;4.90;;;4.40;;
2001;SDS011;1003;48.002;7.788;2022-07-29T05:19:06;5.23;;;4.73;;
2001;SDS011;1003;48.002;7.788;2022-07-29T05:21:34;4.97;;;4.33;;
2001;SDS011;1003;48.002;7.788;2022-07-29T05:24:01;6.37;;;4.60;;
2001;SDS011;1003;48.002;7.788;2022-07-29T05:26:28;5.10;;;4.60;;
2001;SDS011;1003;48.002;7.788;2022-07-29T05:28:55;4.60;;;4.20;;
2001;SDS011;1003;48.002;7.788;2022-07-29T05:31:24;5.67;;;4.80;;
2001;SDS011;1003;48.002;7.788;2022-07-29T05:33:51;5.73;;;4.20;;
2001;SDS011;1003;48.002;7.788;2022-07-29T05:36:18;5.33;;;4.83;;
2001;SDS011;1003;48.002;7.788;2022-07-29T05:38:45;8.97;;;5.13;;
2001;SDS011;1003;48.002;7.788;2022-07-29T05:41:12;4.93;;;4.43;;
2001;SDS011;1003;48.002;7.788;2022-07-29T05:43:39;7.13;;;4.33;;
2001;SDS011;1003;48.002;7.788;2022-07-29T05:46:06;5.37;;;4.50;;
2001;SDS011;1003;48.002;7.788;2022-07-29T05:48:35;6.17;;;4.70;;
2001;SDS011;1003;48.002;7.788;2022-07-29T05:51:02;5.07;;;4.33;;
2001;SDS011;1003;48.002;7.788;2022-07-29T05:53:29;5.13;;;4.50;;
2001;SDS011;1003;48.002;7.788;2022-07-29T05:55:57;5.10;;;4.47;;
2001;SDS011;1003;48.002;7.788;2022-07-29T05:58:24;4.97;;;4.40;;
2001;SDS011;1003;48.002;7.788;2022-07-29T06:00:51;6.37;;;4.40;;
2001;SDS011;1003;48.002;7.788;2022-07-29T06:03:18;4.87;;;4.37;;
2001;SDS011;1003;48.002;7.788;2022-07-29T06:05:46;4.93;;;4.13;;
2001;SDS011;1003;48.002;7.788;2022-07-29T06:08:13;4.43;;;4.03;;
2001;SDS011;1003;48.002;7.788;2022-07-29T06:10:40;5.43;;;4.17;;
2001;SDS011;1003;48.002;7.788;2022-07-29T06:13:08;4.43;;;3.87;;
2001;SDS011;1003;48.002;7.788;2022-07-29T06:15:35;4.47;;;4.07;;
2001;SDS011;1003;48.002;7.788;2022-07-29T06:18:02;5.17;;;4.17;;
2001;SDS011;1003;48.002;7.788;2022-07-29T06:20:32;5.60;;;3.70;;
2001;SDS011;1003;48.002;7.788;2022-07-29T06:23:01;5.80;;;4.50;;
2001;SDS011;1003;48.002;7.788;2022-07-29T06:25:29;4.50;;;4.00;;
2001;SDS011;1003;48.002;7.788;2022-07-29T06:27:59;4.57;;;3.77;;
2001;SDS011;1003;48.002;7.788;2022-07-29T06:30:26;5.33;;;3.70;;
2001;SDS011;1003;48.002;7.788;2022-07-29T06:32:54;4.33;;;3.30;;
2001;SDS011;1003;48.002;7.788;2022-07-29T06:35:21;3.73;;;3.43;;
2001;SDS011;1003;48.002;7.788;2022-07-29T06:37:48;4.90;;;3.50;;
2001;SDS011;1003;48.002;7.788;2022-07-29T06:40:17;3.67;;;3.00;;
2001;SDS011;1003;48.002;7.788;2022-07-29T06:43:02;4.07;;;3.13;;
2001;SDS011;1003;48.002;7.788;2022-07-29T06:45:33;4.72;;;3.00;;
2001;SDS011;1003;48.002;7.788;2022-07-29T06:48:00;3.30;;;3.00;;
2001;SDS011;1003;48.002;7.788;2022-07-29T06:50:27;4.10;;;3.07;;
2001;SDS011;1003;48.002;7.788;2022-07-29T06:52:54;3.50;;;3.20;;
2001;SDS011;1003;48.002;7.788;2022-07-29T06:55:23;3.70;;;3.40;;
2001;SDS011;1003;48.002;7.788;2022-07-29T06:57:50;5.27;;;3.67;;
2001;SDS011;1003;48.002;7.788;2022-07-29T07:00:17;5.40;;;3.27;;
2001;SDS011;1003;48.002;7.788;2022-07-29T07:02:45;3.63;;;3.30;;
2001;SDS011;1003;48.002;7.788;2022-07-29T07:05:13;3.17;;;2.97;;
2001;SDS011;1003;48.002;7.788;2022-07-29T07:07:40;5.37;;;3.47;;
2001;SDS011;1003;48.002;7.788;2022-07-29T07:10:07;3.57;;;3.10;;
2001;SDS011;1003;48.002;7.788;2022-07-29T07:12:36;3.50;;;2.97;;
2001;SDS011;1003;48.002;7.788;2022-07-29T07:15:04;5.07;;;3.33;;
2001;SDS011;1003;48.002;7.788;2022-07-29T07:17:32;3.40;;;3.10;;
2001;SDS011;1003;48.002;7.788;2022-07-29T07:19:59;4.60;;;3.17;;
2001;SDS011;1003;48.002;7.788;2022-07-29T07:22:26;6.00;;;3.80;;
2001;SDS011;1003;48.002;7.788;2022-07-29T07:24:53;4.77;;;3.60;;
2001;SDS011;1003;48.002;7.788;2022-07-29T07:27:20;3.77;;;3.30;;
2001;SDS011;1003;48.002;7.788;2022-07-29T07:29:49;3.77;;;3.00;;
2001;SDS011;1003;48.002;7.788;2022-07-29T07:32:16;3.53;;;3.10;;
2001;SDS011;1003;48.002;7.788;2022-07-29T07:34:43;5.17;;;3.23;;
2001;SDS011;1003;48.002;7.788;2022-07-29T07:37:10;3.70;;;3.30;;
2001;SDS011;1003;48.002;7.788;2022-07-29T07:39:37;4.10;;;3.50;;
2001;SDS011;1003;48.002;7.788;2022-07-29T07:42:04;3.67;;;3.23;;
2001;SDS011;1003;48.002;7.788;2022-07-29T07:44:32;3.93;;;3.20;;
2001;SDS011;1003;48.002;7.788;2022-07-29T07:47:00;3.73;;;3.33;;
2001;SDS011;1003;48.002;7.788;2022-07-29T07:49:27;3.70;;;3.33;;
2001;SDS011;1003;48.002;7.788;2022-07-29T07:51:55;4.13;;;3.33;;
2001;SDS011;1003;48.002;7.788;2022-07-29T07:54:22;3.70;;;3.30;;
2001;SDS011;1003;48.002;7.788;2022-07-29T07:56:49;3.50;;;3.20;;
2001;SDS011;1003;48.002;7.788;2022-07-29T07:59:16;5.13;;;3.13;;
2001;SDS011;1003;48.002;7.788;2022-07-29T08:01:43;3.97;;;3.43;;
2001;SDS011;1003;48.002;7.788;2022-07-29T08:04:12;3.90;;;3.50;;
2001;SDS011;1003;48.002;7.788;2022-07-29T08:06:39;4.63;;;3.30;;
2001;SDS011;1003;48.002;7.788;2022-07-29T08:09:09;4.10;;;3.70;;
2001;SDS011;1003;48.002;7.788;2022-07-29T08:11:36;4.07;;;3.23;;
2001;SDS011;1003;48.002;7.788;2022-07-29T08:14:03;3.57;;;3.27;;
2001;SDS011;1003;48.002;7.788;2022-07-29T08:16:30;5.10;;;3.90;;
2001;SDS011;1003;48.002;7.788;2022-07-29T08:18:57;4.73;;;3.63;;
2001;SDS011;1003;48.002;7.788;2022-07-29T08:21:26;5.37;;;3.50;;
2001;SDS011;1003;48.002;7.788;2022-07-29T08:23:53;3.80;;;3.33;;
2001;SDS011;1003;48.002;7.788;2022-07-29T08:26:40;6.07;;;3.10;;
2001;SDS011;1003;48.002;7.788;2022-07-29T08:29:07;4.87;;;3.23;;
2001;SDS011;1003;48.002;7.788;2022-07-29T08:31:35;4.40;;;2.90;;
2001;SDS011;1003;48.002;7.788;2022-07-29T08:34:02;3.30;;;2.80;;
2001;SDS011;1003;48.002;7.788;2022-07-29T08:36:31;4.40;;;3.20;;
2001;SDS011;1003;48.002;7.788;2022-07-29T08:39:00;4.47;;;3.20;;
2001;SDS011;1003;48.002;7.788;2022-07-29T08:41:29;4.43;;;3.07;;
2001;SDS011;1003;48.002;7.788;2022-07-29T08:43:56;5.57;;;3.10;;
2001;SDS011;1003;48.002;7.788;2022-07-29T08:46:23;6.57;;;3.10;;
2001;SDS011;1003;48.002;7.788;2022-07-29T08:48:50;3.33;;;2.70;;
2001;SDS011;1003;48.002;7.788;2022-07-29T08:51:19;4.50;;;2.60;;
2001;SDS011;1003;48.002;7.788;2022-07-29T08:53:49;3.00;;;2.70;;
2001;SDS011;1003;48.002;7.788;2022-07-29T08:56:17;3.10;;;2.80;;
2001;SDS011;1003;48.002;7.788;2022-07-29T08:58:45;3.00;;;2.67;;
2001;SDS011;1003;48.002;7.788;2022-07-29T09:01:16;3.77;;;2.70;;
2001;SDS011;1003;48.002;7.788;2022-07-29T09:03:49;4.80;;;3.03;;
2001;SDS011;1003;48.002;7.788;2022-07-29T09:06:20;3.47;;;2.87;;
2001;SDS011;1003;48.002;7.788;2022-07-29T09:08:53;4.60;;;2.90;;
2001;SDS011;1003;48.002;7.788;2022-07-29T09:11:25;3.30;;;2.50;;
2001;SDS011;1003;48.002;7.788;2022-07-29T09:13:53;3.70;;;2.93;;
2001;SDS011;1003;48.002;7.788;2022-07-29T09:16:20;2.97;;;2.70;;
2001;SDS011;1003;48.002;7.788;2022-07-29T09:18:47;4.43;;;3.00;;
2001;SDS011;1003;48.002;7.788;2022-07-29T09:21:15;4.00;;;2.93;;
2001;SDS011;1003;48.002;7.788;2022-07-29T09:24:03;3.40;;;3.10;;
2001;SDS011;1003;48.002;7.788;2022-07-29T09:26:33;3.73;;;3.07;;
2001;SDS011;1003;48.002;7.788;2022-07-29T09:29:10;3.30;;;3.00;;
2001;SDS011;1003;48.002;7.788;2022-07-29T09:31:40;4.90;;;3.17;;
2001;SDS011;1003;48.002;7.788;2022-07-29T09:34:09;5.37;;;2.90;;
2001;SDS011;1003;48.002;7.788;2022-07-29T09:36:38;3.40;;;2.90;;
2001;SDS011;1003;48.002;7.788;2022-07-29T09:39:09;5.60;;;2.93;;
2001;SDS011;1003;48.002;7.788;2022-07-29T09:41:43;3.50;;;2.63;;
2001;SDS011;1003;48.002;7.788;2022-07-29T09:44:12;3.67;;;2.80;;
2001;SDS011;1003;48.002;7.788;2022-07-29T09:46:40;5.00;;;2.60;;
2001;SDS011;1003;48.002;7.788;2022-07-29T09:49:22;4.77;;;2.70;;
2001;SDS011;1003;48.002;7.788;2022-07-29T09:51:58;4.00;;;2.90;;
2001;SDS011;1003;48.002;7.788;2022-07-29T09:54:32;4.43;;;2.77;;
2001;SDS011;1003;48.002;7.788;2022-07-29T09:57:02;4.23;;;2.90;;
2001;SDS011;1003;48.002;7.788;2022-07-29T09:59:31;4.20;;;2.97;;
2001;SDS011;1003;48.002;7.788;2022-07-29T10:01:59;3.03;;;2.60;;
2001;SDS011;1003;48.002;7.788;2022-07-29T10:04:36;2.57;;;2.37;;
2001;SDS011;1003;48.002;7.788;2022-07-29T10:07:05;3.07;;;2.83;;
2001;SDS011;1003;48.002;7.788;2022-07-29T10:09:33;3.40;;;3.00;;
2001;SDS011;1003;48.002;7.788;2022-07-29T10:12:03;3.93;;;3.00;;
2001;SDS011;1003;48.002;7.788;2022-07-29T10:14:36;3.53;;;2.87;;
2001;SDS011;1003;48.002;7.788;2022-07-29T10:17:05;3.60;;;3.30;;
2001;SDS011;1003;48.002;7.788;2022-07-29T10:19:34;4.87;;;3.47;;
2001;SDS011;1003;48.002;7.788;2022-07-29T10:22:05;7.13;;;3.13;;
2001;SDS011;1003;48.002;7.788;2022-07-29T10:24:36;2.97;;;2.53;;
2001;SDS011;1003;48.002;7.788;2022-07-29T10:27:05;3.67;;;3.00;;
2001;SDS011;1003;48.002;7.788;2022-07-29T10:29:34;5.10;;;2.87;;
2001;SDS011;1003;48.002;7.788;2022-07-29T10:35:09;5.07;;;2.80;;
2001;SDS011;1003;48.002;7.788;2022-07-29T10:38:09;5.70;;;3.30;;
2001;SDS011;1003;48.002;7.788;2022-07-29T10:41:00;2.97;;;2.67;;
2001;SDS011;1003;48.002;7.788;2022-07-29T10:43:55;3.00;;;2.80;;
2001;SDS011;1003;48.002;7.788;2022-07-29T10:46:27;3.47;;;3.17;;
2001;SDS011;1003;48.002;7.788;2022-07-29T10:49:07;4.33;;;2.90;;
2001;SDS011;1003;48.002;7.788;2022-07-29T10:51:57;8.63;;;3.10;;
2001;SDS011;1003;48.002;7.788;2022-07-29T10:57:23;6.00;;;2.90;;
2001;SDS011;1003;48.002;7.788;2022-07-29T11:02:56;4.15;;;3.25;;
2001;SDS011;1003;48.002;7.788;2022-07-29T11:05:24;3.30;;;3.00;;
2001;SDS011;1003;48.002;7.788;2022-07-29T11:10:50;4.30;;;3.00;;
2001;SDS011;1003;48.002;7.788;2022-07-29T11:13:50;3.33;;;2.85;;
2001;SDS011;1003;48.002;7.788;2022-07-29T11:16:20;4.32;;;2.92;;
2001;SDS011;1003;48.002;7.788;2022-07-29T11:21:50;4.32;;;2.70;;
2001;SDS011;1003;48.002;7.788;2022-07-29T11:24:18;3.63;;;3.08;;
2001;SDS011;1003;48.002;7.788;2022-07-29T11:27:07;4.18;;;3.20;;
2001;SDS011;1003;48.002;7.788;2022-07-29T11:29:39;4.90;;;3.05;;
2001;SDS011;1003;48.002;7.788;2022-07-29T11:32:18;3.60;;;3.00;;
2001;SDS011;1003;48.002;7.788;2022-07-29T11:34:47;6.18;;;2.90;;
2001;SDS011;1003;48.002;7.788;2022-07-29T11:37:19;3.50;;;2.90;;
2001;SDS011;1003;48.002;7.788;2022-07-29T11:42:37;4.35;;;3.22;;
2001;SDS011;1003;48.002;7.788;2022-07-29T11:45:13;5.28;;;3.13;;
2001;SDS011;1003;48.002;7.788;2022-07-29T11:47:54;3.50;;;2.93;;
2001;SDS011;1003;48.002;7.788;2022-07-29T11:50:28;6.47;;;3.53;;
2001;SDS011;1003;48.002;7.788;2022-07-29T11:53:00;4.10;;;2.75;;
2001;SDS011;1003;48.002;7.788;2022-07-29T11:55:29;3.20;;;2.83;;
2001;SDS011;1003;48.002;7.788;2022-07-29T11:58:00;2.90;;;2.70;;
2001;SDS011;1003;48.002;7.788;2022-07-29T12:00:30;3.35;;;2.92;;
2001;SDS011;1003;48.002;7.788;2022-07-29T12:03:01;3.87;;;2.93;;
2001;SDS011;1003;48.002;7.788;2022-07-29T12:05:32;3.50;;;2.70;;
2001;SDS011;1003;48.002;7.788;2022-07-29T12:08:06;8.70;;;3.73;;
2001;SDS011;1003;48.002;7.788;2022-07-29T12:10:41;5.43;;;3.23;;
2001;SDS011;1003;48.002;7.788;2022-07-29T12:13:09;2.97;;;2.70;;
2001;SDS011;1003;48.002;7.788;2022-07-29T12:15:38;4.07;;;3.00;;
2001;SDS011;1003;48.002;7.788;2022-07-29T12:18:15;4.57;;;2.90;;
2001;SDS011;1003;48.002;7.788;2022-07-29T12:20:45;4.07;;;3.20;;
2001;SDS011;1003;48.002;7.788;2022-07-29T12:23:14;2.67;;;2.47;;
2001;SDS011;1003;48.002;7.788;2022-07-29T12:25:42;4.60;;;2.67;;
2001;SDS011;1003;48.002;7.788;2022-07-29T12:28:11;3.87;;;2.87;;
2001;SDS011;1003;48.002;7.788;2022-07-29T12:30:45;4.47;;;3.00;;
2001;SDS011;1003;48.002;7.788;2022-07-29T12:33:16;3.10;;;2.80;;
2001;SDS011;1003;48.002;7.788;2022-07-29T12:35:47;5.03;;;3.00;;
2001;SDS011;1003;48.002;7.788;2022-07-29T12:38:16;4.40;;;2.67;;
2001;SDS011;1003;48.002;7.788;2022-07-29T12:40:45;2.90;;;2.70;;
2001;SDS011;1003;48.002;7.788;2022-07-29T12:43:14;3.40;;;2.70;;
2001;SDS011;1003;48.002;7.788;2022-07-29T12:45:45;3.10;;;2.80;;
2001;SDS011;1003;48.002;7.788;2022-07-29T12:48:15;3.63;;;2.73;;
2001;SDS011;1003;48.002;7.788;2022-07-29T12:50:54;2.73;;;2.43;;
2001;SDS011;1003;48.002;7.788;2022-07-29T12:53:23;3.20;;;2.90;;
2001;SDS011;1003;48.002;7.788;2022-07-29T12:55:52;3.10;;;2.80;;
2001;SDS011;1003;48.002;7.788;2022-07-29T12:58:30;2.50;;;2.30;;
2001;SDS011;1003;48.002;7.788;2022-07-29T13:01:06;4.07;;;3.00;;
2001;SDS011;1003;48.002;7.788;2022-07-29T13:03:47;3.30;;;3.00;;
2001;SDS011;1003;48.002;7.788;2022-07-29T13:06:26;4.60;;;2.60;;
2001;SDS011;1003;48.002;7.788;2022-07-29T13:09:05;3.07;;;2.50;;
2001;SDS011;1003;48.002;7.788;2022-07-29T13:11:36;5.53;;;2.93;;
2001;SDS011;1003;48.002;7.788;2022-07-29T13:14:06;4.13;;;2.70;;
2001;SDS011;1003;48.002;7.788;2022-07-29T13:16:37;4.90;;;2.87;;
2001;SDS011;1003;48.002;7.788;2022-07-29T13:19:33;3.60;;;2.97;;
2001;SDS011;1003;48.002;7.788;2022-07-29T13:22:06;5.70;;;2.80;;
2001;SDS011;1003;48.002;7.788;2022-07-29T13:24:34;4.67;;;2.43;;
2001;SDS011;1003;48.002;7.788;2022-07-29T13:27:14;3.03;;;2.83;;
2001;SDS011;1003;48.002;7.788;2022-07-29T13:29:42;2.63;;;2.43;;
2001;SDS011;1003;48.002;7.788;2022-07-29T13:32:10;2.77;;;2.20;;
2001;SDS011;1003;48.002;7.788;2022-07-29T13:34:38;2.77;;;2.43;;
2001;SDS011;1003;48.002;7.788;2022-07-29T13:37:06;3.07;;;2.67;;
2001;SDS011;1003;48.002;7.788;2022-07-29T13:39:33;4.43;;;2.70;;
2001;SDS011;1003;48.002;7.788;2022-07-29T13:42:00;4.83;;;2.50;;
2001;SDS011;1003;48.002;7.788;2022-07-29T13:44:28;3.97;;;2.37;;
2001;SDS011;1003;48.002;7.788;2022-07-29T13:46:55;3.93;;;2.40;;
2001;SDS011;1003;48.002;7.788;2022-07-29T13:49:25;3.20;;;2.50;;
2001;SDS011;1003;48.002;7.788;2022-07-29T13:51:52;3.60;;;2.60;;
2001;SDS011;1003;48.002;7.788;2022-07-29T13:54:19;2.80;;;2.57;;
2001;SDS011;1003;48.002;7.788;2022-07-29T13:56:46;2.50;;;2.30;;
2001;SDS011;1003;48.002;7.788;2022-07-29T13:59:13;2.60;;;2.40;;
2001;SDS011;1003;48.002;7.788;2022-07-29T14:01:40;3.37;;;2.43;;
2001;SDS011;1003;48.002;7.788;2022-07-29T14:04:08;4.23;;;2.50;;
2001;SDS011;1003;48.002;7.788;2022-07-29T14:06:37;2.80;;;2.60;;
2001;SDS011;1003;48.002;7.788;2022-07-29T14:09:04;3.77;;;2.50;;
2001;SDS011;1003;48.002;7.788;2022-07-29T14:11:33;2.77;;;2.20;;
2001;SDS011;1003;48.002;7.788;2022-07-29T14:14:00;4.63;;;2.50;;
2001;SDS011;1003;48.002;7.788;2022-07-29T14:16:27;2.43;;;2.23;;
2001;SDS011;1003;48.002;7.788;2022-07-29T14:18:55;3.20;;;2.20;;
2001;SDS011;1003;48.002;7.788;2022-07-29T14:21:22;4.13;;;2.70;;
2001;SDS011;1003;48.002;7.788;2022-07-29T14:23:50;3.90;;;2.40;;
2001;SDS011;1003;48.002;7.788;2022-07-29T14:26:19;3.10;;;2.37;;
2001;SDS011;1003;48.002;7.788;2022-07-29T14:28:52;2.47;;;2.20;;
2001;SDS011;1003;48.002;7.788;2022-07-29T14:31:19;2.23;;;2.03;;
2001;SDS011;1003;48.002;7.788;2022-07-29T14:33:46;3.07;;;2.30;;
2001;SDS011;1003;48.002;7.788;2022-07-29T14:36:13;2.50;;;2.30;;
2001;SDS011;1003;48.002;7.788;2022-07-29T14:38:40;2.10;;;2.00;;
2001;SDS011;1003;48.002;7.788;2022-07-29T14:41:09;2.47;;;2.03;;
2001;SDS011;1003;48.002;7.788;2022-07-29T14:43:36;3.07;;;2.17;;
2001;SDS011;1003;48.002;7.788;2022-07-29T14:46:03;2.27;;;1.90;;
2001;SDS011;1003;48.002;7.788;2022-07-29T14:48:32;2.20;;;2.00;;
2001;SDS011;1003;48.002;7.788;2022-07-29T14:51:00;3.63;;;2.27;;
2001;SDS011;1003;48.002;7.788;2022-07-29T14:53:27;1.90;;;1.80;;
2001;SDS011;1003;48.002;7.788;2022-07-29T14:55:54;3.93;;;2.00;;
2001;SDS011;1003;48.002;7.788;2022-07-29T14:58:22;2.40;;;1.90;;
2001;SDS011;1003;48.002;7.788;2022-07-29T15:00:49;3.37;;;1.93;;
2001;SDS011;1003;48.002;7.788;2022-07-29T15:03:17;2.13;;;1.90;;
2001;SDS011;1003;48.002;7.788;2022-07-29T15:05:45;2.90;;;1.93;;
2001;SDS011;1003;48.002;7.788;2022-07-29T15:08:12;2.13;;;1.93;;
2001;SDS011;1003;48.002;7.788;2022-07-29T15:10:39;2.80;;;1.90;;
2001;SDS011;1003;48.002;7.788;2022-07-29T15:13:06;2.43;;;1.83;;
2001;SDS011;1003;48.002;7.788;2022-07-29T15:15:34;2.70;;;1.90;;
2001;SDS011;1003;48.002;7.788;2022-07-29T15:18:01;3.57;;;2.27;;
2001;SDS011;1003;48.002;7.788;2022-07-29T15:20:29;2.10;;;1.90;;
2001;SDS011;1003;48.002;7.788;2022-07-29T15:22:56;3.57;;;1.87;;
2001;SDS011;1003;48.002;7.788;2022-07-29T15:25:23;2.50;;;1.70;;
2001;SDS011;1003;48.002;7.788;2022-07-29T15:27:51;1.80;;;1.70;;
2001;SDS011;1003;48.002;7.788;2022-07-29T15:30:18;2.40;;;2.20;;
2001;SDS011;1003;48.002;7.788;2022-07-29T15:32:47;2.80;;;1.80;;
2001;SDS011;1003;48.002;7.788;2022-07-29T15:35:14;3.03;;;2.20;;
2001;SDS011;1003;48.002;7.788;2022-07-29T15:37:41;3.07;;;1.93;;
2001;SDS011;1003;48.002;7.788;2022-07-29T15:40:08;2.97;;;1.83;;
2001;SDS011;1003;48.002;7.788;2022-07-29T15:42:36;2.47;;;2.13;;
2001;SDS011;1003;48.002;7.788;2022-07-29T15:45:04;2.50;;;1.60;;
2001;SDS011;1003;48.002;7.788;2022-07-29T15:47:33;3.30;;;1.83;;
2001;SDS011;1003;48.002;7.788;2022-07-29T15:50:03;1.83;;;1.73;;
2001;SDS011;1003;48.002;7.788;2022-07-29T15:52:36;1.97;;;1.80;;